Time;durP1;ratioP1;P1;durP2;ratioP2;P2;SDS_P1;SDS_P2;PMS_P1;PMS_P2;Temp;Humidity;BMP_temperature;BMP_pressure;BME280_temperature;BME280_humidity;BME280_pressure;Samples;Min_cycle;Max_cycle;Signal;HPM_P1;HPM_P2
2022/04/01 00:01:13;;;;;;;9.30;6.10;;;;;;;-1.18;89.05;99188.81;8599392;32;20821;-77
2022/04/01 00:06:17;;;;;;;12.40;7.87;;;;;;;-1.22;89.25;99180.22;8602681;32;20245;-77
2022/04/01 00:11:20;;;;;;;17.67;9.17;;;;;;;-1.25;89.19;99187.44;8598236;32;20461;-77
2022/04/01 00:16:24;;;;;;;9.60;6.47;;;;;;;-1.17;88.52;99186.13;8598194;32;20431;-77
2022/04/01 00:21:28;;;;;;;10.77;8.13;;;;;;;-1.19;88.61;99179.22;8594998;32;20147;-77
2022/04/01 00:26:31;;;;;;;12.60;8.47;;;;;;;-1.25;88.91;99183.03;8597648;32;20412;-77
2022/04/01 00:31:35;;;;;;;12.13;7.83;;;;;;;-1.33;89.35;99187.84;8596521;32;20434;-77
2022/04/01 00:36:40;;;;;;;11.03;7.07;;;;;;;-1.35;89.26;99183.56;8598299;32;20423;-77
2022/04/01 00:41:46;;;;;;;13.13;8.43;;;;;;;-1.39;89.39;99180.25;8597972;32;20618;-77
2022/04/01 00:46:51;;;;;;;12.30;7.63;;;;;;;-1.38;89.28;99189.00;8595440;32;20344;-77
2022/04/01 00:51:58;;;;;;;12.10;7.30;;;;;;;-1.38;89.44;99196.91;8599345;32;20455;-77
2022/04/01 00:57:03;;;;;;;10.37;8.00;;;;;;;-1.34;89.34;99193.16;8602207;32;20345;-77
2022/04/01 01:02:08;;;;;;;11.87;7.40;;;;;;;-1.40;89.38;99199.59;8601472;32;20651;-77
2022/04/01 01:07:14;;;;;;;10.50;7.33;;;;;;;-1.48;89.63;99207.91;8597623;32;20234;-77
2022/04/01 01:12:18;;;;;;;11.50;7.53;;;;;;;-0.99;87.87;99194.84;8598058;32;20420;-77
2022/04/01 01:17:21;;;;;;;10.27;7.10;;;;;;;-1.30;88.48;99206.13;8595090;32;20906;-77
2022/04/01 01:22:25;;;;;;;13.57;7.80;;;;;;;-1.37;89.31;99201.22;8596420;32;21132;-77
2022/04/01 01:27:30;;;;;;;10.57;7.80;;;;;;;-1.42;89.50;99201.47;8596937;32;20422;-77
2022/04/01 01:32:34;;;;;;;15.20;8.10;;;;;;;-1.41;89.18;99208.44;8598940;32;20138;-77
2022/04/01 01:37:39;;;;;;;10.50;7.27;;;;;;;-1.45;89.18;99215.66;8594725;32;20681;-77
2022/04/01 01:42:44;;;;;;;9.20;6.43;;;;;;;-1.53;89.43;99220.44;8595788;32;20517;-77
2022/04/01 01:47:47;;;;;;;11.23;6.50;;;;;;;-1.49;89.41;99215.88;8596516;32;20134;-77
2022/04/01 01:58:12;;;;;;;9.87;6.67;;;;;;;-1.48;89.44;99217.56;8600445;32;20377;-77
2022/04/01 02:03:17;;;;;;;9.13;6.60;;;;;;;-1.63;89.29;99216.56;8599183;32;20410;-77
2022/04/01 02:08:20;;;;;;;8.50;5.80;;;;;;;-1.54;89.70;99228.41;8595164;32;21009;-77
2022/04/01 02:13:26;;;;;;;9.97;6.30;;;;;;;-1.54;89.56;99225.78;8593056;32;20466;-77
2022/04/01 02:18:29;;;;;;;7.70;5.40;;;;;;;-1.53;89.49;99224.88;8595195;32;20183;-77
2022/04/01 02:23:34;;;;;;;7.77;5.23;;;;;;;-1.54;88.99;99225.78;8595996;32;20478;-77
2022/04/01 02:28:38;;;;;;;7.57;5.33;;;;;;;-1.55;89.55;99247.78;8597527;32;20948;-77
2022/04/01 02:33:43;;;;;;;8.67;5.70;;;;;;;-1.44;89.36;99242.84;8592661;32;20944;-77
2022/04/01 02:38:46;;;;;;;10.27;6.40;;;;;;;-1.50;88.89;99244.00;8593652;32;20513;-77
2022/04/01 02:43:52;;;;;;;8.40;5.70;;;;;;;-1.50;89.50;99244.00;8594042;32;20455;-76
2022/04/01 02:48:55;;;;;;;7.40;5.43;;;;;;;-1.43;88.84;99242.75;8592521;32;20432;-77
2022/04/01 02:54:11;;;;;;;6.53;5.07;;;;;;;-1.57;88.77;99247.84;8592479;32;20487;-77
2022/04/01 02:59:15;;;;;;;9.10;5.63;;;;;;;-1.51;89.10;99257.22;8591222;32;20391;-77
2022/04/01 03:04:19;;;;;;;9.17;5.60;;;;;;;-1.52;89.35;99250.28;8593956;32;20159;-77
2022/04/01 03:09:30;;;;;;;8.60;5.53;;;;;;;-1.51;88.74;99234.41;8592037;32;20597;-77
2022/04/01 03:14:40;;;;;;;8.60;6.03;;;;;;;-1.50;88.81;99254.53;8596259;32;20142;-77
2022/04/01 03:19:59;;;;;;;8.97;5.60;;;;;;;-1.55;88.90;99258.31;8598281;32;20940;-77
2022/04/01 03:25:05;;;;;;;7.43;4.67;;;;;;;-1.62;88.56;99269.16;8595087;32;20547;-77
2022/04/01 03:30:19;;;;;;;9.60;6.33;;;;;;;-1.54;88.51;99267.91;8596605;32;20157;-77
2022/04/01 03:35:24;;;;;;;9.57;6.70;;;;;;;-1.53;88.80;99274.91;8604372;32;20922;-77
2022/04/01 03:40:29;;;;;;;8.03;5.33;;;;;;;-1.54;88.56;99281.09;8592385;32;21897;-77
2022/04/01 03:45:34;;;;;;;6.33;4.70;;;;;;;-1.56;88.69;99281.19;8596725;32;20154;-76
2022/04/01 03:50:49;;;;;;;7.20;4.77;;;;;;;-1.56;88.75;99288.19;8600523;32;20142;-76
2022/04/01 03:55:55;;;;;;;7.23;5.23;;;;;;;-1.59;88.88;99283.97;8608969;32;20687;-76
2022/04/01 04:01:19;;;;;;;5.07;4.30;;;;;;;-1.68;89.03;99287.88;8611673;32;20392;-76
2022/04/01 04:06:23;;;;;;;5.20;4.33;;;;;;;-1.66;88.87;99285.19;8616706;32;20498;-76
2022/04/01 04:11:29;;;;;;;6.23;4.50;;;;;;;-1.63;88.95;99279.75;8616324;32;20643;-76
2022/04/01 04:16:57;;;;;;;6.30;4.53;;;;;;;-1.71;88.87;99285.38;8581144;32;20775;-76
2022/04/01 04:22:13;;;;;;;6.60;4.50;;;;;;;-1.73;89.02;99286.38;8583015;32;21519;-76
2022/04/01 04:27:28;;;;;;;6.57;4.80;;;;;;;-1.71;88.96;99295.91;8590003;32;20409;-76
2022/04/01 04:32:40;;;;;;;8.40;4.90;;;;;;;-1.67;88.94;99299.28;8595841;32;20454;-76
2022/04/01 04:37:46;;;;;;;7.70;4.73;;;;;;;-1.77;88.96;99313.81;8606380;32;20404;-76
2022/04/01 04:42:53;;;;;;;7.70;5.23;;;;;;;-1.71;88.99;99313.50;8599148;32;20439;-75
2022/04/01 04:48:00;;;;;;;6.37;4.90;;;;;;;-1.74;88.73;99317.13;8593719;32;20754;-75
2022/04/01 04:53:03;;;;;;;7.03;5.07;;;;;;;-1.75;88.98;99320.72;8593480;32;20130;-76
2022/04/01 04:58:09;;;;;;;9.97;6.33;;;;;;;-1.71;88.67;99332.78;8596406;32;20399;-76
2022/04/01 05:03:42;;;;;;;9.20;6.17;;;;;;;-1.76;88.74;99340.03;8590475;32;20554;-76
2022/04/01 05:09:01;;;;;;;10.20;6.00;;;;;;;-1.72;88.72;99341.63;8584903;32;20428;-76
2022/04/01 05:14:44;;;;;;;9.63;6.07;;;;;;;-1.79;88.54;99348.09;8581797;32;20488;-76
2022/04/01 05:19:58;;;;;;;11.40;8.30;;;;;;;-1.74;88.49;99353.16;8606031;32;20410;-76
2022/04/01 05:25:03;;;;;;;9.30;5.97;;;;;;;-1.76;88.86;99363.75;8589267;32;20961;-76
2022/04/01 05:30:13;;;;;;;10.13;5.93;;;;;;;-1.67;88.71;99367.75;8594119;32;20419;-76
2022/04/01 05:35:43;;;;;;;8.63;6.30;;;;;;;-1.77;88.31;99377.00;8586119;32;20407;-75
2022/04/01 05:40:50;;;;;;;9.97;6.57;;;;;;;-1.68;88.54;99379.19;8578254;32;20947;-76
2022/04/01 05:45:55;;;;;;;9.53;6.00;;;;;;;-1.78;88.52;99391.94;8574387;32;20168;-76
2022/04/01 05:51:02;;;;;;;7.47;5.40;;;;;;;-1.73;88.72;99400.44;8599358;32;20769;-76
2022/04/01 05:56:15;;;;;;;12.90;7.17;;;;;;;-1.69;88.61;99395.91;8573846;32;20151;-76
2022/04/01 06:01:28;;;;;;;10.90;5.97;;;;;;;-1.69;88.51;99399.41;8574251;32;20910;-76
2022/04/01 06:06:41;;;;;;;9.83;6.70;;;;;;;-1.71;88.25;99405.66;8574254;32;20275;-76
2022/04/01 06:12:06;;;;;;;10.80;7.00;;;;;;;-1.67;88.11;99404.63;8574986;32;20542;-76
2022/04/01 06:17:43;;;;;;;8.40;6.00;;;;;;;-1.61;88.16;99412.22;8575492;32;20457;-76
2022/04/01 06:22:52;;;;;;;8.40;5.93;;;;;;;-1.74;88.07;99418.97;8575626;32;20351;-76
2022/04/01 06:28:14;;;;;;;12.27;6.67;;;;;;;-1.70;87.77;99426.69;8574482;32;20415;-76
2022/04/01 06:33:30;;;;;;;11.63;7.70;;;;;;;-1.71;87.60;99434.63;8577405;32;20843;-76
2022/04/01 06:38:54;;;;;;;10.07;6.93;;;;;;;-1.66;87.77;99445.81;8578779;32;20422;-75
2022/04/01 06:43:57;;;;;;;10.93;7.50;;;;;;;-1.60;87.37;99444.69;8576749;32;20434;-75
2022/04/01 06:49:32;;;;;;;12.13;7.40;;;;;;;-1.62;87.68;99461.41;8574304;32;20445;-76
2022/04/01 06:54:56;;;;;;;10.70;7.20;;;;;;;-1.45;87.25;99458.00;8574587;32;20253;-76
2022/04/01 07:00:18;;;;;;;10.23;6.93;;;;;;;-1.32;86.94;99460.91;8575699;32;20520;-76
2022/04/01 07:05:21;;;;;;;10.70;7.40;;;;;;;-1.37;86.55;99468.19;8575178;32;20394;-76
2022/04/01 07:10:26;;;;;;;12.77;7.80;;;;;;;-1.27;86.39;99466.81;8575320;32;21237;-76
2022/04/01 07:15:29;;;;;;;8.63;6.93;;;;;;;-1.31;86.36;99475.81;8575090;32;21129;-75
2022/04/01 07:20:32;;;;;;;12.87;6.93;;;;;;;-1.42;86.23;99484.19;8575156;32;20426;-76
2022/04/01 07:25:37;;;;;;;9.57;6.93;;;;;;;-1.31;86.26;99488.13;8574842;32;20474;-76
2022/04/01 07:30:40;;;;;;;10.63;6.97;;;;;;;-1.51;85.85;99483.75;8573829;32;20429;-76
2022/04/01 07:35:47;;;;;;;10.20;7.53;;;;;;;-1.50;86.62;99483.69;8573696;32;20885;-76
2022/04/01 07:40:51;;;;;;;11.17;6.23;;;;;;;-1.47;86.54;99491.44;8575703;32;20409;-76
2022/04/01 07:45:54;;;;;;;10.80;6.90;;;;;;;-1.35;86.38;99491.81;8539914;32;20424;-76
2022/04/01 07:50:57;;;;;;;11.03;7.17;;;;;;;-1.36;86.32;99492.75;8521475;33;20395;-76
2022/04/01 07:56:02;;;;;;;14.73;7.40;;;;;;;-1.35;85.90;99491.81;8520854;33;20451;-77
2022/04/01 08:01:05;;;;;;;11.43;7.47;;;;;;;-1.13;85.96;99500.41;8521223;33;20405;-76
2022/04/01 08:06:08;;;;;;;10.93;7.30;;;;;;;-1.05;85.62;99500.06;8520583;33;20954;-76
2022/04/01 08:11:13;;;;;;;12.03;8.17;;;;;;;-1.03;85.54;99506.13;8521691;33;20143;-76
2022/04/01 08:16:17;;;;;;;12.07;7.37;;;;;;;-1.11;84.82;99516.19;8519730;33;20470;-76
2022/04/01 08:21:21;;;;;;;9.67;7.20;;;;;;;-1.09;85.13;99524.88;8521248;33;20327;-76
2022/04/01 08:26:26;;;;;;;12.20;8.27;;;;;;;-1.07;84.45;99536.19;8507958;33;21007;-75
2022/04/01 08:31:33;;;;;;;11.67;8.13;;;;;;;-1.09;84.32;99541.53;8520724;33;20155;-75
2022/04/01 08:36:36;;;;;;;12.70;8.20;;;;;;;-1.07;84.64;99544.97;8520108;33;20135;-75
2022/04/01 08:41:40;;;;;;;18.70;9.87;;;;;;;-1.14;83.60;99550.59;8520575;33;20306;-75
2022/04/01 08:46:44;;;;;;;12.93;7.60;;;;;;;-1.01;84.10;99549.09;8518423;33;20412;-76
2022/04/01 08:51:47;;;;;;;11.00;7.67;;;;;;;-0.97;83.06;99561.19;8520027;33;20545;-75
2022/04/01 08:56:55;;;;;;;11.30;8.03;;;;;;;-0.85;83.03;99565.91;8518849;33;20453;-76
2022/04/01 09:02:08;;;;;;;10.03;7.23;;;;;;;-0.83;82.54;99576.38;8518766;33;20420;-77
2022/04/01 09:07:13;;;;;;;11.77;7.47;;;;;;;-0.63;83.24;99580.69;8519624;33;20395;-77
2022/04/01 09:12:19;;;;;;;14.00;7.90;;;;;;;-0.58;83.18;99583.97;8518861;33;20465;-77
2022/04/01 09:17:22;;;;;;;9.97;7.00;;;;;;;-0.67;81.94;99587.06;8519792;33;20197;-78
2022/04/01 09:22:26;;;;;;;11.20;7.23;;;;;;;-0.82;82.32;99601.84;8519667;33;20415;-77
2022/04/01 09:27:43;;;;;;;9.53;6.33;;;;;;;-0.79;82.58;99613.09;8543519;33;20407;-78
2022/04/01 09:32:49;;;;;;;12.33;6.83;;;;;;;-0.80;83.06;99611.34;8522541;33;20120;-78
2022/04/01 09:37:55;;;;;;;11.80;7.30;;;;;;;-0.66;83.11;99630.97;8519579;33;20363;-76
2022/04/01 09:43:00;;;;;;;10.67;7.20;;;;;;;-0.64;83.19;99626.47;8521560;33;20222;-76
2022/04/01 09:48:07;;;;;;;15.27;8.27;;;;;;;-0.62;83.36;99635.19;8521556;33;21080;-76
2022/04/01 09:53:13;;;;;;;12.33;7.67;;;;;;;-0.56;83.65;99638.38;8522235;33;20414;-75
2022/04/01 09:58:20;;;;;;;12.73;7.17;;;;;;;-0.54;83.73;99636.53;8522222;33;21874;-75
2022/04/01 10:03:23;;;;;;;14.07;7.47;;;;;;;-0.54;84.33;99646.25;8543588;33;20411;-75
2022/04/01 10:08:28;;;;;;;13.30;7.67;;;;;;;-0.51;84.01;99646.09;8520857;33;20510;-75
2022/04/01 10:13:35;;;;;;;13.87;7.23;;;;;;;-0.48;84.18;99642.44;8521881;33;20451;-75
2022/04/01 10:18:41;;;;;;;13.67;7.50;;;;;;;-0.58;83.94;99650.78;8524531;33;20184;-74
2022/04/01 10:23:55;;;;;;;14.17;7.70;;;;;;;-0.54;83.90;99655.00;8544487;33;21782;-74
2022/04/01 10:29:00;;;;;;;11.53;6.87;;;;;;;-0.40;85.00;99656.13;8519540;33;21754;-75
2022/04/01 10:34:23;;;;;;;12.67;7.70;;;;;;;-0.33;84.44;99646.97;8518486;33;20509;-74
2022/04/01 10:39:28;;;;;;;20.03;7.90;;;;;;;-0.30;83.75;99650.34;8520346;33;20163;-74
2022/04/01 10:44:51;;;;;;;14.17;7.27;;;;;;;-0.31;83.71;99645.97;8521369;33;20300;-75
2022/04/01 10:55:18;;;;;;;8.87;5.80;;;;;;;-0.39;79.89;99658.69;8524341;33;20426;-74
2022/04/01 11:00:23;;;;;;;7.73;5.43;;;;;;;-0.33;79.59;99666.34;8523968;33;20445;-74
2022/04/01 11:05:31;;;;;;;10.10;5.23;;;;;;;-0.38;76.64;99655.16;8520078;33;20420;-75
2022/04/01 11:10:34;;;;;;;6.83;4.37;;;;;;;-0.29;78.19;99665.25;8544441;33;20469;-75
2022/04/01 11:15:39;;;;;;;8.40;4.47;;;;;;;-0.32;75.82;99654.00;8522233;33;20419;-75
2022/04/01 11:20:56;;;;;;;11.63;6.63;;;;;;;-0.30;76.25;99650.34;8522535;33;20505;-75
2022/04/01 11:25:59;;;;;;;5.73;4.27;;;;;;;-0.35;76.69;99665.53;8522717;33;21634;-74
2022/04/01 11:31:26;;;;;;;16.67;7.07;;;;;;;-0.45;74.78;99668.69;8523466;33;20170;-75
2022/04/01 11:36:31;;;;;;;5.33;3.93;;;;;;;-0.52;74.42;99671.63;8522782;33;20224;-75
2022/04/01 11:41:49;;;;;;;6.67;4.57;;;;;;;-0.44;73.81;99650.13;8526258;33;20406;-75
2022/04/01 11:46:58;;;;;;;5.80;4.50;;;;;;;-0.22;73.11;99659.66;8523936;33;20207;-75
2022/04/01 11:52:01;;;;;;;5.37;4.10;;;;;;;-0.23;70.84;99674.66;8524753;33;20386;-75
2022/04/01 11:57:05;;;;;;;7.13;4.10;;;;;;;0.26;71.91;99667.00;8525650;33;21028;-75
2022/04/01 12:02:12;;;;;;;8.20;5.53;;;;;;;0.40;71.91;99671.59;8526432;33;20417;-75
2022/04/01 12:12:36;;;;;;;8.23;3.50;;;;;;;0.49;70.79;99675.53;8526174;33;20249;-76
2022/04/01 12:17:49;;;;;;;6.53;4.27;;;;;;;0.52;72.00;99670.09;8526847;33;20389;-75
2022/04/01 12:22:53;;;;;;;4.83;3.70;;;;;;;0.46;71.60;99673.06;8526898;33;20846;-75
2022/04/01 12:27:58;;;;;;;4.93;3.27;;;;;;;0.42;71.24;99675.00;8525640;33;20261;-75
2022/04/01 12:33:06;;;;;;;7.60;3.95;;;;;;;0.31;72.06;99678.19;8492727;33;20147;-75
2022/04/01 12:38:12;;;;;;;6.97;3.67;;;;;;;0.37;73.58;99699.00;8472400;33;20921;-75
2022/04/01 12:43:40;;;;;;;7.20;4.07;;;;;;;0.23;74.46;99700.63;8472708;33;20976;-75
2022/04/01 12:48:49;;;;;;;3.67;3.13;;;;;;;0.15;76.32;99711.56;8473121;33;20442;-75
2022/04/01 12:54:02;;;;;;;7.00;4.03;;;;;;;0.14;76.65;99704.59;8472846;33;20900;-75
2022/04/01 12:59:08;;;;;;;6.60;4.03;;;;;;;0.23;78.19;99716.47;8471239;33;20413;-75
2022/04/01 13:04:20;;;;;;;7.97;4.23;;;;;;;0.22;79.56;99715.63;8470796;33;20413;-76
2022/04/01 13:09:23;;;;;;;8.43;4.57;;;;;;;0.19;79.42;99714.91;8492263;33;20409;-76
2022/04/01 13:14:29;;;;;;;8.27;4.47;;;;;;;0.21;79.18;99708.63;8530552;33;21058;-76
2022/04/01 13:19:37;;;;;;;10.13;5.03;;;;;;;0.19;79.53;99702.53;8529330;33;21948;-76
2022/04/01 13:24:43;;;;;;;7.03;4.47;;;;;;;0.08;81.14;99700.47;8527522;33;20488;-76
2022/04/01 13:29:47;;;;;;;8.20;5.50;;;;;;;-0.07;82.36;99717.03;8530541;33;20432;-76
2022/04/01 13:34:52;;;;;;;7.10;5.13;;;;;;;-0.11;83.14;99711.06;8527537;33;20555;-76
2022/04/01 13:39:55;;;;;;;12.45;6.50;;;;;;;-0.20;83.19;99715.91;8527863;33;20497;-76
2022/04/01 13:44:59;;;;;;;9.53;5.40;;;;;;;-0.06;84.16;99714.28;8528366;33;20285;-76
2022/04/01 13:50:05;;;;;;;7.63;5.13;;;;;;;0.11;84.11;99710.88;8527989;33;20410;-75
2022/04/01 13:55:09;;;;;;;8.93;5.87;;;;;;;0.04;84.03;99708.59;8528410;33;20260;-75
2022/04/01 14:00:13;;;;;;;9.60;6.40;;;;;;;0.08;84.57;99716.31;8528540;33;20864;-75
2022/04/01 14:05:21;;;;;;;11.87;7.17;;;;;;;-0.07;84.95;99714.38;8529694;33;20246;-76
2022/04/01 14:10:31;;;;;;;11.87;7.87;;;;;;;-0.14;85.09;99715.59;8527324;33;20411;-75
2022/04/01 14:15:34;;;;;;;12.47;7.90;;;;;;;-0.21;85.97;99708.91;8528496;33;20439;-76
2022/04/01 14:20:38;;;;;;;13.20;8.57;;;;;;;-0.15;86.51;99719.19;8550255;33;20166;-76
2022/04/01 14:25:44;;;;;;;15.47;8.57;;;;;;;-0.25;86.94;99723.16;8526666;33;20127;-76
2022/04/01 14:30:47;;;;;;;14.67;8.53;;;;;;;-0.22;86.83;99728.31;8526464;33;20173;-76
2022/04/01 14:35:51;;;;;;;17.33;10.07;;;;;;;-0.24;87.55;99719.63;8527827;33;20416;-76
2022/04/01 14:40:57;;;;;;;14.33;9.73;;;;;;;-0.30;87.59;99721.63;8529245;33;20164;-76
2022/04/01 14:46:01;;;;;;;17.60;10.80;;;;;;;-0.41;87.71;99720.38;8527621;33;20573;-76
2022/04/01 14:51:05;;;;;;;16.90;10.67;;;;;;;-0.48;87.67;99717.19;8549690;33;20412;-76
2022/04/01 14:56:08;;;;;;;16.53;11.17;;;;;;;-0.41;88.19;99723.03;8526004;33;20470;-76
2022/04/01 15:01:11;;;;;;;15.37;10.70;;;;;;;-0.41;88.45;99725.66;8524820;33;20147;-76
2022/04/01 15:06:17;;;;;;;15.23;10.07;;;;;;;-0.40;88.44;99719.47;8526441;33;20275;-76
2022/04/01 15:11:20;;;;;;;20.30;12.23;;;;;;;-0.46;88.54;99727.69;8526006;33;20894;-76
2022/04/01 15:16:23;;;;;;;6.47;3.63;;;;;;;-0.47;88.64;99731.22;8525379;33;20488;-76
2022/04/01 15:21:28;;;;;;;2.40;2.30;;;;;;;-0.52;88.87;99734.94;8488793;33;20417;-76
2022/04/01 15:26:31;;;;;;;0.63;0.63;;;;;;;-0.58;88.70;99734.34;8466232;33;20547;-76
2022/04/01 15:31:34;;;;;;;1.43;1.27;;;;;;;-0.60;88.99;99741.50;8465864;33;20934;-76
2022/04/01 15:36:44;;;;;;;0.60;0.60;;;;;;;-0.61;89.10;99745.91;8494091;33;20409;-77
2022/04/01 15:41:53;;;;;;;1.40;1.40;;;;;;;-0.69;88.91;99744.53;8516496;33;20522;-76
2022/04/01 15:46:59;;;;;;;0.90;0.90;;;;;;;-0.77;89.26;99750.13;8519642;33;20161;-76
2022/04/01 15:52:04;;;;;;;0.80;0.80;;;;;;;-0.75;89.60;99749.16;8536978;33;21117;-76
2022/04/01 15:57:08;;;;;;;1.87;1.80;;;;;;;-0.80;89.42;99751.13;8521760;33;20395;-75
2022/04/01 16:02:20;;;;;;;0.60;0.60;;;;;;;-0.80;89.84;99760.81;8522739;33;20963;-76
2022/04/01 16:07:30;;;;;;;0.50;0.50;;;;;;;-0.84;89.57;99762.75;8525744;33;20828;-76
2022/04/01 16:12:34;;;;;;;0.93;0.93;;;;;;;-0.86;89.79;99769.00;8522284;33;20486;-76
2022/04/01 16:17:38;;;;;;;0.70;0.70;;;;;;;-0.86;90.05;99780.41;8527727;33;20385;-75
2022/04/01 16:22:43;;;;;;;0.60;0.60;;;;;;;-0.88;90.05;99774.34;8529569;33;20337;-75
2022/04/01 16:27:47;;;;;;;0.67;0.67;;;;;;;-0.86;90.22;99793.59;8529165;33;20223;-75
2022/04/01 16:32:51;;;;;;;0.90;0.90;;;;;;;-0.87;90.17;99789.25;8528720;33;20897;-75
2022/04/01 16:37:57;;;;;;;1.43;1.43;;;;;;;-0.87;90.33;99788.41;8528740;33;20401;-76
2022/04/01 16:43:00;;;;;;;1.03;1.03;;;;;;;-0.84;90.41;99798.81;8527487;33;21038;-76
2022/04/01 16:48:03;;;;;;;1.10;1.10;;;;;;;-0.82;90.12;99794.34;8527646;33;20926;-76
2022/04/01 16:53:09;;;;;;;1.20;1.20;;;;;;;-0.76;90.41;99810.75;8528560;33;20454;-75
2022/04/01 16:58:13;;;;;;;1.67;1.63;;;;;;;-0.73;90.59;99818.53;8528633;33;20417;-76
2022/04/01 17:03:17;;;;;;;1.47;1.47;;;;;;;-0.76;90.38;99818.66;8528665;33;20127;-76
2022/04/01 17:14:04;;;;;;;0.80;0.80;;;;;;;-0.64;90.61;99827.81;8527909;33;20432;-75
2022/04/01 17:19:08;;;;;;;0.50;0.50;;;;;;;-0.56;90.74;99823.06;8526994;33;20499;-76
2022/04/01 17:24:12;;;;;;;0.83;0.83;;;;;;;-0.53;90.37;99829.97;8528347;33;20879;-76
2022/04/01 17:29:16;;;;;;;1.17;1.17;;;;;;;-0.52;90.47;99834.34;8528556;33;20414;-78
2022/04/01 17:34:20;;;;;;;0.70;0.70;;;;;;;-0.50;90.50;99835.97;8527954;33;21773;-78
2022/04/01 17:39:26;;;;;;;0.60;0.60;;;;;;;-0.60;90.11;99844.38;8527395;33;20452;-78
2022/04/01 17:44:32;;;;;;;1.27;1.27;;;;;;;-0.56;89.22;99848.59;8529838;33;20451;-77
2022/04/01 17:49:36;;;;;;;2.50;2.30;;;;;;;-0.57;88.82;99852.16;8530319;33;20573;-78
2022/04/01 17:54:41;;;;;;;0.70;0.70;;;;;;;-0.52;88.38;99861.59;8526643;33;20879;-76
2022/04/01 17:59:51;;;;;;;1.20;1.20;;;;;;;-0.46;88.29;99867.53;8526873;33;20405;-76
2022/04/01 18:04:58;;;;;;;0.60;0.60;;;;;;;-0.46;87.73;99881.56;8528188;33;21837;-76
2022/04/01 18:10:03;;;;;;;0.70;0.70;;;;;;;-0.41;86.39;99878.72;8526358;33;20924;-77
2022/04/01 18:15:10;;;;;;;0.60;0.60;;;;;;;-0.30;85.97;99900.25;8527381;33;20240;-77
2022/04/01 18:20:15;;;;;;;1.40;1.37;;;;;;;-0.30;86.00;99901.09;8526971;33;20414;-76
2022/04/01 18:25:19;;;;;;;0.80;0.80;;;;;;;-0.35;85.79;99905.72;8527520;33;20391;-77
2022/04/01 18:30:26;;;;;;;0.70;0.70;;;;;;;-0.28;84.58;99914.22;8526484;33;20508;-78
2022/04/01 18:35:33;;;;;;;0.70;0.70;;;;;;;-0.38;82.14;99926.13;8531747;33;20443;-78
2022/04/01 18:40:40;;;;;;;0.70;0.70;;;;;;;-0.20;81.40;99935.00;8529025;33;20905;-79
2022/04/01 18:45:44;;;;;;;0.57;0.57;;;;;;;-0.18;81.57;99934.00;8528037;33;20409;-77
2022/04/01 18:50:50;;;;;;;0.80;0.80;;;;;;;-0.26;80.27;99948.47;8527391;33;20571;-77
2022/04/01 18:55:57;;;;;;;1.13;1.13;;;;;;;-0.20;79.61;99940.28;8526881;33;20417;-77
2022/04/01 19:01:04;;;;;;;0.60;0.60;;;;;;;-0.12;79.66;99938.16;8525557;33;21334;-77
2022/04/01 19:06:19;;;;;;;0.60;0.60;;;;;;;-0.03;79.42;99960.66;8525320;33;20390;-76
2022/04/01 19:11:33;;;;;;;0.60;0.60;;;;;;;-0.09;79.40;99953.88;8497908;33;20170;-76
2022/04/01 19:16:42;;;;;;;4.57;1.60;;;;;;;-0.01;79.83;99959.66;8528199;33;20867;-76
2022/04/01 19:21:47;;;;;;;0.50;0.50;;;;;;;-0.12;78.75;99975.13;8528626;33;20420;-76
2022/04/01 19:26:51;;;;;;;0.80;0.80;;;;;;;-0.05;77.95;99973.94;8526126;33;20611;-76
2022/04/01 19:31:56;;;;;;;1.30;1.30;;;;;;;-0.00;78.16;99979.00;8526635;33;21154;-76
2022/04/01 19:37:02;;;;;;;0.90;0.90;;;;;;;0.00;77.76;99971.97;8527707;33;20146;-76
2022/04/01 19:42:07;;;;;;;1.50;1.47;;;;;;;0.01;77.60;99978.94;8531308;33;20473;-76
2022/04/01 19:47:10;;;;;;;0.60;0.60;;;;;;;-0.03;76.20;99985.28;8532696;33;20423;-76
2022/04/01 19:52:14;;;;;;;2.33;2.23;;;;;;;-0.07;75.33;99991.63;8533036;33;20723;-77
2022/04/01 19:57:18;;;;;;;0.60;0.60;;;;;;;0.01;76.69;99996.59;8532548;33;20139;-76
2022/04/01 20:02:21;;;;;;;0.63;0.63;;;;;;;-0.00;77.02;100000.13;8535035;33;20976;-76
2022/04/01 20:07:25;;;;;;;0.77;0.77;;;;;;;-0.02;75.47;100002.00;8585393;32;21582;-76
2022/04/01 20:12:29;;;;;;;1.00;1.00;;;;;;;-0.02;76.05;100005.50;8588483;32;20440;-76
2022/04/01 20:17:32;;;;;;;1.57;1.57;;;;;;;-0.12;76.13;100018.22;8587737;32;20400;-76
2022/04/01 20:22:55;;;;;;;0.60;0.60;;;;;;;-0.04;75.62;100015.25;8581804;32;20138;-76
2022/04/01 20:28:00;;;;;;;0.60;0.60;;;;;;;-0.03;75.62;100013.47;8544807;32;20179;-77
2022/04/01 20:33:03;;;;;;;0.60;0.60;;;;;;;-0.01;76.23;100020.41;8531516;33;20405;-76
2022/04/01 20:38:07;;;;;;;0.80;0.80;;;;;;;-0.03;76.27;100019.59;8566796;32;20157;-76
2022/04/01 20:43:14;;;;;;;0.70;0.70;;;;;;;-0.04;76.51;100022.34;8549021;32;21117;-76
2022/04/01 20:48:18;;;;;;;0.60;0.60;;;;;;;-0.07;76.26;100023.31;8541472;32;20430;-76
2022/04/01 20:53:23;;;;;;;0.57;0.57;;;;;;;-0.13;75.32;100029.72;8565825;32;20504;-77
2022/04/01 20:58:28;;;;;;;0.60;0.60;;;;;;;-0.12;75.21;100044.63;8574110;32;20135;-77
2022/04/01 21:03:32;;;;;;;0.70;0.70;;;;;;;-0.09;75.90;100048.91;8591116;32;20636;-77
2022/04/01 21:08:35;;;;;;;0.70;0.70;;;;;;;-0.11;75.20;100048.13;8589580;32;20142;-77
2022/04/01 21:13:40;;;;;;;0.60;0.60;;;;;;;-0.14;75.54;100051.78;8569650;32;22229;-77
2022/04/01 21:18:43;;;;;;;0.63;0.63;;;;;;;-0.16;76.24;100056.25;8482761;33;20504;-76
2022/04/01 21:23:47;;;;;;;0.70;0.70;;;;;;;-0.17;74.84;100064.22;8552793;32;21277;-77
2022/04/01 21:28:51;;;;;;;0.60;0.60;;;;;;;-0.19;75.05;100053.75;8572066;32;20907;-77
2022/04/01 21:33:54;;;;;;;0.70;0.70;;;;;;;-0.22;75.14;100053.88;8558648;32;20668;-77
2022/04/01 21:38:58;;;;;;;0.70;0.70;;;;;;;-0.21;76.05;100058.22;8538533;32;20473;-76
2022/04/01 21:44:03;;;;;;;1.00;1.00;;;;;;;-0.25;75.25;100067.19;8531287;33;20165;-76
2022/04/01 21:49:06;;;;;;;0.50;0.50;;;;;;;-0.26;74.71;100064.63;8549769;32;20328;-76
2022/04/01 21:54:10;;;;;;;0.87;0.87;;;;;;;-0.24;76.31;100073.34;8575233;32;20490;-76
2022/04/01 21:59:15;;;;;;;0.60;0.60;;;;;;;-0.31;74.67;100072.72;8530185;33;20481;-76
2022/04/01 22:04:20;;;;;;;0.70;0.70;;;;;;;-0.33;75.42;100061.34;8529487;33;20926;-76
2022/04/01 22:09:23;;;;;;;0.60;0.60;;;;;;;-0.32;76.40;100071.00;8527499;33;20408;-77
2022/04/01 22:14:29;;;;;;;0.60;0.60;;;;;;;-0.32;76.22;100066.59;8527822;33;20131;-76
2022/04/01 22:19:35;;;;;;;0.70;0.70;;;;;;;-0.34;75.93;100076.34;8550975;33;20434;-76
2022/04/01 22:24:38;;;;;;;1.97;1.60;;;;;;;-0.37;74.58;100072.97;8528772;33;20861;-75
2022/04/01 22:29:44;;;;;;;0.93;0.93;;;;;;;-0.32;76.11;100081.56;8528081;33;20915;-76
2022/04/01 22:34:47;;;;;;;0.60;0.60;;;;;;;-0.41;74.75;100080.16;8529100;33;20403;-75
2022/04/01 22:39:50;;;;;;;1.20;1.20;;;;;;;-0.36;74.60;100091.38;8528374;33;20228;-76
2022/04/01 22:44:55;;;;;;;0.60;0.60;;;;;;;-0.37;76.13;100097.59;8529013;33;21244;-76
2022/04/01 22:49:58;;;;;;;0.70;0.70;;;;;;;-0.39;76.79;100098.56;8527363;33;20419;-76
2022/04/01 22:55:01;;;;;;;0.67;0.67;;;;;;;-0.39;75.74;100103.84;8527852;33;21077;-76
2022/04/01 23:00:09;;;;;;;0.50;0.50;;;;;;;-0.47;74.88;100106.78;8525731;33;20485;-76
2022/04/01 23:05:12;;;;;;;0.60;0.60;;;;;;;-0.41;74.28;100116.22;8527435;33;20419;-76
2022/04/01 23:10:15;;;;;;;1.00;1.00;;;;;;;-0.39;75.09;100112.63;8527044;33;20452;-76
2022/04/01 23:15:20;;;;;;;0.70;0.70;;;;;;;-0.44;75.35;100104.00;8527147;33;21008;-76
2022/04/01 23:20:24;;;;;;;0.70;0.70;;;;;;;-0.43;74.54;100113.66;8527274;33;20179;-76
2022/04/01 23:25:27;;;;;;;0.60;0.60;;;;;;;-0.42;75.86;100117.16;8552369;33;20617;-76
2022/04/01 23:30:32;;;;;;;1.23;1.23;;;;;;;-0.46;74.74;100116.44;8530392;33;20911;-76
2022/04/01 23:35:35;;;;;;;2.20;2.10;;;;;;;-0.47;74.93;100114.69;8528541;33;20962;-76
2022/04/01 23:40:39;;;;;;;0.90;0.90;;;;;;;-0.51;76.60;100118.41;8527347;33;20915;-75
2022/04/01 23:45:43;;;;;;;0.50;0.50;;;;;;;-0.55;76.58;100114.13;8525776;33;20132;-75
2022/04/01 23:50:48;;;;;;;0.60;0.60;;;;;;;-0.64;76.22;100111.88;8527380;33;20127;-75
2022/04/01 23:55:52;;;;;;;0.67;0.67;;;;;;;-0.64;76.28;100117.16;8525791;33;20520;-76
